Time;durP1;ratioP1;P1;durP2;ratioP2;P2;SDS_P1;SDS_P2;PMS_P1;PMS_P2;Temp;Humidity;BMP_temperature;BMP_pressure;BME280_temperature;BME280_humidity;BME280_pressure;Samples;Min_cycle;Max_cycle;Signal;HPM_P1;HPM_P2
2022/09/20 00:00:43;;;;;;;0.40;0.40;;;;;;;;;;5068580;28;20442;-71
2022/09/20 00:03:14;;;;;;;0.20;0.20;;;;;;;;;;5069571;28;20917;-71
2022/09/20 00:05:42;;;;;;;0.40;0.40;;;;;;;;;;5069680;28;20433;-71
2022/09/20 00:08:11;;;;;;;0.38;0.38;;;;;;;;;;5069912;28;20431;-71
2022/09/20 00:10:38;;;;;;;0.40;0.30;;;;;;;;;;5069586;28;20443;-72
2022/09/20 00:13:07;;;;;;;0.50;0.50;;;;;;;;;;5060427;28;20434;-71
2022/09/20 00:15:34;;;;;;;0.50;0.50;;;;;;;;;;5069376;28;20427;-71
2022/09/20 00:18:04;;;;;;;0.28;0.28;;;;;;;;;;5068565;28;20428;-72
2022/09/20 00:20:35;;;;;;;0.30;0.30;;;;;;;;;;5069708;28;20510;-71
2022/09/20 00:23:02;;;;;;;0.60;0.38;;;;;;;;;;5069293;28;20431;-71
2022/09/20 00:25:32;;;;;;;0.40;0.40;;;;;;;;;;5069570;28;20427;-71
2022/09/20 00:27:59;;;;;;;0.40;0.40;;;;;;;;;;5068568;28;20428;-71
2022/09/20 00:30:30;;;;;;;0.90;0.30;;;;;;;;;;5069588;28;20441;-71
2022/09/20 00:33:00;;;;;;;0.52;0.40;;;;;;;;;;5067802;28;20843;-71
2022/09/20 00:35:28;;;;;;;0.57;0.28;;;;;;;;;;5070526;28;20431;-71
2022/09/20 00:37:55;;;;;;;0.60;0.35;;;;;;;;;;5073580;28;20453;-71
2022/09/20 00:40:29;;;;;;;0.30;0.30;;;;;;;;;;5073824;28;20423;-72
2022/09/20 00:42:56;;;;;;;0.40;0.40;;;;;;;;;;5073353;28;20433;-71
2022/09/20 00:45:25;;;;;;;0.25;0.25;;;;;;;;;;5072304;28;20427;-72
2022/09/20 00:47:57;;;;;;;0.20;0.20;;;;;;;;;;5074682;28;20438;-72
2022/09/20 00:50:42;;;;;;;0.30;0.30;;;;;;;;;;5074421;28;20481;-71
2022/09/20 00:53:09;;;;;;;0.30;0.30;;;;;;;;;;5073811;28;20435;-71
2022/09/20 00:55:38;;;;;;;0.20;0.20;;;;;;;;;;5074033;28;20477;-72
2022/09/20 00:58:05;;;;;;;0.20;0.20;;;;;;;;;;5073949;28;20438;-72
2022/09/20 01:00:32;;;;;;;0.30;0.30;;;;;;;;;;5074168;28;20431;-72
2022/09/20 01:03:01;;;;;;;0.50;0.32;;;;;;;;;;5074124;28;20461;-72
2022/09/20 01:05:29;;;;;;;0.40;0.40;;;;;;;;;;5073998;28;20431;-72
2022/09/20 01:07:59;;;;;;;0.30;0.30;;;;;;;;;;5073829;28;20481;-71
2022/09/20 01:10:29;;;;;;;0.20;0.20;;;;;;;;;;5073901;28;20431;-72
2022/09/20 01:12:56;;;;;;;0.10;0.10;;;15.90;99.90;;;;;;5073358;28;20457;-71
2022/09/20 01:15:33;;;;;;;0.13;0.13;;;7.70;99.90;;;;;;5073660;28;20485;-71
2022/09/20 01:18:02;;;;;;;0.30;0.30;;;7.50;99.90;;;;;;5072976;28;20423;-72
2022/09/20 01:20:32;;;;;;;0.30;0.30;;;7.40;99.90;;;;;;5074140;28;20431;-71
2022/09/20 01:23:24;;;;;;;0.70;0.30;;;7.30;99.90;;;;;;5071426;28;20470;-72
2022/09/20 01:26:21;;;;;;;0.22;0.22;;;7.30;99.90;;;;;;5073204;28;20442;-72
2022/09/20 01:28:55;;;;;;;0.20;0.20;;;7.40;99.90;;;;;;5072269;28;20431;-70
2022/09/20 01:31:33;;;;;;;0.40;0.30;;;7.40;99.90;;;;;;5072110;28;20431;-70
2022/09/20 01:34:10;;;;;;;0.40;0.40;;;7.40;99.90;;;;;;5072091;28;20522;-70
2022/09/20 01:37:11;;;;;;;0.47;0.47;;;7.60;99.90;;;;;;5071039;28;20893;-70
2022/09/20 01:40:23;;;;;;;0.43;0.43;;;7.80;99.90;;;;;;5072318;28;20427;-70
2022/09/20 01:43:29;;;;;;;0.22;0.22;;;8.00;99.90;;;;;;4989928;28;20485;-69
2022/09/20 01:46:02;;;;;;;0.30;0.30;;;8.00;99.90;;;;;;4973998;28;20430;-70
2022/09/20 01:48:36;;;;;;;0.20;0.20;;;7.90;99.90;;;;;;4990480;28;20972;-70
2022/09/20 01:51:31;;;;;;;1.08;0.35;;;7.90;99.90;;;;;;4990045;28;20489;-70
2022/09/20 01:54:32;;;;;;;0.20;0.20;;;7.80;99.90;;;;;;4989724;28;20434;-70
2022/09/20 01:57:35;;;;;;;0.20;0.20;;;7.70;99.90;;;;;;4985744;28;20434;-70
2022/09/20 02:00:13;;;;;;;1.60;0.55;;;7.50;99.90;;;;;;4989974;28;20448;-70
2022/09/20 02:02:53;;;;;;;0.50;0.50;;;7.40;99.90;;;;;;4989920;28;20451;-70
2022/09/20 02:05:25;;;;;;;0.50;0.50;;;7.40;99.90;;;;;;4989674;28;20438;-70
2022/09/20 02:08:20;;;;;;;0.30;0.30;;;7.40;99.90;;;;;;4989800;28;20492;-70
2022/09/20 02:10:49;;;;;;;0.43;0.43;;;7.40;99.90;;;;;;4989888;28;20438;-70
2022/09/20 02:13:32;;;;;;;0.30;0.30;;;7.40;99.90;;;;;;4973322;28;20431;-70
2022/09/20 02:16:31;;;;;;;0.20;0.20;;;7.30;99.90;;;;;;4989847;28;20514;-70
2022/09/20 02:19:30;;;;;;;1.02;0.50;;;7.30;99.90;;;;;;5031908;28;20426;-70
2022/09/20 02:22:39;;;;;;;0.30;0.30;;;7.30;99.90;;;;;;5055428;28;20949;-70
2022/09/20 02:25:54;;;;;;;1.25;0.28;;;7.20;99.90;;;;;;5070989;28;20515;-70
2022/09/20 02:29:00;;;;;;;0.30;0.20;;;7.10;99.90;;;;;;5034644;28;20427;-70
2022/09/20 02:31:33;;;;;;;0.37;0.37;;;7.10;99.90;;;;;;5060476;28;20438;-71
2022/09/20 02:34:27;;;;;;;0.30;0.30;;;7.00;99.90;;;;;;5070780;28;20435;-70
2022/09/20 02:37:06;;;;;;;0.20;0.20;;;6.90;99.90;;;;;;5071294;28;20431;-70
2022/09/20 02:39:42;;;;;;;0.93;0.93;;;6.90;99.90;;;;;;5071166;28;20477;-70
2022/09/20 02:42:24;;;;;;;0.30;0.30;;;6.80;99.90;;;;;;5069752;28;20917;-70
2022/09/20 02:45:19;;;;;;;0.38;0.38;;;6.70;99.90;;;;;;5070569;28;20423;-70
2022/09/20 02:47:46;;;;;;;0.30;0.30;;;6.70;99.90;;;;;;5071217;28;20432;-73
2022/09/20 02:50:30;;;;;;;0.28;0.28;;;6.80;99.90;;;;;;5071609;28;20790;-70
2022/09/20 02:53:15;;;;;;;0.30;0.30;;;6.80;99.90;;;;;;5070133;28;20423;-70
2022/09/20 02:56:02;;;;;;;0.30;0.30;;;6.80;99.90;;;;;;5070877;28;20439;-70
2022/09/20 02:59:03;;;;;;;0.80;0.30;;;6.80;99.90;;;;;;5069945;28;20438;-70
2022/09/20 03:01:40;;;;;;;0.45;0.45;;;6.80;99.90;;;;;;5070769;28;20423;-70
2022/09/20 03:04:13;;;;;;;1.20;0.60;;;6.90;99.90;;;;;;5070408;28;20427;-70
2022/09/20 03:07:07;;;;;;;0.20;0.20;;;6.80;99.90;;;;;;5070802;28;20427;-70
2022/09/20 03:09:49;;;;;;;0.90;0.90;;;6.80;99.90;;;;;;5070705;28;20478;-70
2022/09/20 03:12:38;;;;;;;0.30;0.30;;;6.70;99.90;;;;;;5070545;28;20439;-70
2022/09/20 03:15:05;;;;;;;0.20;0.20;;;6.60;99.90;;;;;;5070152;28;20427;-70
2022/09/20 03:17:43;;;;;;;0.50;0.50;;;6.50;99.90;;;;;;5070440;28;20445;-70
2022/09/20 03:20:34;;;;;;;0.57;0.57;;;6.50;99.90;;;;;;5069227;28;20431;-70
2022/09/20 03:23:22;;;;;;;0.30;0.20;;;6.50;99.90;;;;;;5070041;28;20476;-69
2022/09/20 03:25:57;;;;;;;0.60;0.35;;;6.40;99.90;;;;;;5070185;28;20925;-69
2022/09/20 03:28:49;;;;;;;0.27;0.27;;;6.40;99.90;;;;;;5070064;28;20438;-69
2022/09/20 03:31:19;;;;;;;0.52;0.52;;;6.40;99.90;;;;;;5070330;28;20447;-69
2022/09/20 03:34:04;;;;;;;1.20;0.30;;;6.30;99.90;;;;;;5069809;28;20426;-69
2022/09/20 03:36:57;;;;;;;0.50;0.50;;;6.30;99.90;;;;;;5070322;28;20825;-69
2022/09/20 03:39:36;;;;;;;0.40;0.40;;;6.30;99.90;;;;;;5070438;28;20428;-70
2022/09/20 03:42:17;;;;;;;1.05;0.43;;;6.30;99.90;;;;;;5070319;28;20518;-70
2022/09/20 03:45:11;;;;;;;2.30;0.50;;;6.40;99.90;;;;;;5051583;28;21290;-70
2022/09/20 03:47:56;;;;;;;1.00;0.75;;;6.40;99.90;;;;;;5070635;28;20438;-70
2022/09/20 03:51:00;;;;;;;0.30;0.30;;;6.50;99.90;;;;;;5069965;28;20435;-71
2022/09/20 03:53:46;;;;;;;0.40;0.40;;;6.70;99.90;;;;;;5065420;28;20435;-71
2022/09/20 03:56:34;;;;;;;1.60;0.67;;;6.80;99.90;;;;;;5069561;28;20974;-71
2022/09/20 03:59:21;;;;;;;0.52;0.52;;;6.80;99.90;;;;;;5069712;28;20646;-71
2022/09/20 04:01:50;;;;;;;0.47;0.47;;;6.90;99.90;;;;;;5070114;28;20430;-71
2022/09/20 04:04:40;;;;;;;0.45;0.45;;;6.90;99.90;;;;;;5069056;28;20427;-71
2022/09/20 04:07:46;;;;;;;0.57;0.57;;;6.90;99.90;;;;;;5070015;28;20449;-71
2022/09/20 04:10:32;;;;;;;0.40;0.40;;;7.00;99.90;;;;;;5070356;28;20794;-72
2022/09/20 04:13:27;;;;;;;0.50;0.50;;;7.00;99.90;;;;;;5075043;28;20794;-71
2022/09/20 04:16:06;;;;;;;0.90;0.50;;;7.10;99.90;;;;;;5075232;28;20431;-71
2022/09/20 04:18:40;;;;;;;0.80;0.60;;;7.10;99.90;;;;;;5075606;28;20450;-71
2022/09/20 04:21:22;;;;;;;0.90;0.70;;;7.10;99.90;;;;;;5075230;28;20428;-71
2022/09/20 04:23:52;;;;;;;0.63;0.63;;;7.10;99.90;;;;;;5074710;28;20427;-71
2022/09/20 04:26:25;;;;;;;0.50;0.50;;;7.10;99.90;;;;;;5072872;28;20477;-71
2022/09/20 04:29:29;;;;;;;0.70;0.63;;;7.10;99.90;;;;;;5075189;28;20423;-71
2022/09/20 04:32:13;;;;;;;0.68;0.68;;;7.10;99.90;;;;;;5073581;28;20427;-71
2022/09/20 04:37:37;;;;;;;0.63;0.63;;;7.00;99.90;;;;;;5073783;28;20434;-71
2022/09/20 04:40:13;;;;;;;0.75;0.75;;;6.90;99.90;;;;;;5072123;28;20934;-70
2022/09/20 04:43:03;;;;;;;0.68;0.68;;;6.90;99.90;;;;;;5073381;28;20510;-71
2022/09/20 04:45:59;;;;;;;0.60;0.60;;;6.70;99.90;;;;;;5073161;28;20428;-71
2022/09/20 04:49:00;;;;;;;0.40;0.40;;;6.60;99.90;;;;;;5073230;28;20933;-70
2022/09/20 04:51:27;;;;;;;0.35;0.35;;;6.50;99.90;;;;;;5073223;28;20435;-70
2022/09/20 04:53:59;;;;;;;0.57;0.57;;;6.40;99.90;;;;;;5072733;28;20963;-70
2022/09/20 04:56:44;;;;;;;1.02;0.50;;;6.30;99.90;;;;;;5072793;28;20458;-70
2022/09/20 04:59:55;;;;;;;0.50;0.50;;;6.20;99.90;;;;;;5072984;28;20419;-71
2022/09/20 05:02:43;;;;;;;0.43;0.43;;;6.20;99.90;;;;;;5072766;28;20465;-70
2022/09/20 05:05:24;;;;;;;0.60;0.60;;;6.10;99.90;;;;;;5072348;28;20532;-70
2022/09/20 05:08:17;;;;;;;0.40;0.40;;;6.00;99.90;;;;;;5072620;28;20439;-71
2022/09/20 05:10:56;;;;;;;0.45;0.45;;;6.10;99.90;;;;;;5063651;28;20515;-70
2022/09/20 05:13:41;;;;;;;0.55;0.55;;;6.00;99.90;;;;;;5072243;28;20520;-70
2022/09/20 05:16:07;;;;;;;0.30;0.30;;;6.10;99.90;;;;;;5072536;28;20435;-71
2022/09/20 05:19:22;;;;;;;0.30;0.25;;;6.00;99.90;;;;;;5072296;28;20909;-71
2022/09/20 05:21:58;;;;;;;0.65;0.65;;;6.00;99.90;;;;;;5072333;28;20439;-71
2022/09/20 05:24:51;;;;;;;0.65;0.65;;;6.00;99.90;;;;;;5070757;28;20431;-71
2022/09/20 05:28:04;;;;;;;0.40;0.40;;;6.10;99.90;;;;;;5072692;28;20436;-71
2022/09/20 05:30:47;;;;;;;0.45;0.45;;;6.10;99.90;;;;;;5071093;28;20427;-71
2022/09/20 05:33:29;;;;;;;0.45;0.45;;;6.10;99.90;;;;;;5072218;28;20433;-72
2022/09/20 05:36:24;;;;;;;0.32;0.32;;;6.10;99.90;;;;;;5072130;28;20435;-72
2022/09/20 05:38:58;;;;;;;0.22;0.22;;;6.20;99.90;;;;;;5072548;28;20427;-71
2022/09/20 05:42:00;;;;;;;0.67;0.67;;;6.20;99.90;;;;;;5072245;28;20530;-71
2022/09/20 05:44:52;;;;;;;0.30;0.30;;;6.20;99.90;;;;;;5071812;28;20442;-71
2022/09/20 05:47:42;;;;;;;0.38;0.38;;;6.20;99.90;;;;;;5070644;28;20817;-72
2022/09/20 05:50:57;;;;;;;0.50;0.50;;;6.40;99.90;;;;;;5071815;28;20439;-71
2022/09/20 05:53:35;;;;;;;0.30;0.30;;;6.50;99.90;;;;;;5040910;28;20496;-72
2022/09/20 05:56:25;;;;;;;0.33;0.33;;;6.70;99.90;;;;;;5071825;28;20438;-72
2022/09/20 05:59:21;;;;;;;0.95;0.50;;;6.90;99.90;;;;;;5072082;28;20424;-72
2022/09/20 06:02:14;;;;;;;0.30;0.30;;;7.10;99.90;;;;;;5067599;28;20506;-72
2022/09/20 06:05:18;;;;;;;0.40;0.40;;;7.20;99.90;;;;;;5071517;28;20431;-73
2022/09/20 06:08:10;;;;;;;0.30;0.30;;;7.30;99.90;;;;;;5071801;28;20436;-72
2022/09/20 06:11:00;;;;;;;0.20;0.20;;;7.40;99.90;;;;;;5071559;28;20431;-72
2022/09/20 06:13:37;;;;;;;0.35;0.35;;;7.50;99.90;;;;;;5071724;28;20463;-72
2022/09/20 06:16:08;;;;;;;0.20;0.20;;;7.60;99.90;;;;;;5071732;28;20436;-72
2022/09/20 06:18:48;;;;;;;0.30;0.25;;;7.70;99.90;;;;;;5071686;28;20430;-72
2022/09/20 06:21:41;;;;;;;0.70;0.70;;;7.70;99.90;;;;;;5071859;28;20427;-72
2022/09/20 06:24:38;;;;;;;0.60;0.30;;;7.80;99.90;;;;;;5071304;28;20427;-72
2022/09/20 06:27:12;;;;;;;0.40;0.38;;;7.80;99.90;;;;;;5071170;28;20439;-72
2022/09/20 06:29:47;;;;;;;0.50;0.40;;;7.90;99.90;;;;;;5070353;28;20980;-72
2022/09/20 06:32:18;;;;;;;0.20;0.20;;;8.00;99.90;;;;;;5070059;28;21105;-72
2022/09/20 06:34:46;;;;;;;0.43;0.43;;;8.00;99.90;;;;;;5070179;28;20799;-72
2022/09/20 06:43:19;;;;;;;1.00;0.45;;;9.20;99.90;;;;;;5070631;28;20435;-71
2022/09/20 06:45:47;;;;;;;0.57;0.57;;;9.20;99.90;;;;;;5071067;28;20435;-71
2022/09/20 06:48:14;;;;;;;0.50;0.50;;;9.30;99.90;;;;;;5071095;28;20518;-71
2022/09/20 06:50:44;;;;;;;0.30;0.30;;;;;;;;;;5071165;28;20427;-72
2022/09/20 06:53:16;;;;;;;0.60;0.52;;;;;;;;;;5070579;28;20435;-72
2022/09/20 06:55:48;;;;;;;0.60;0.60;;;;;;;;;;5070690;28;20509;-70
2022/09/20 06:58:18;;;;;;;0.80;0.50;;;;;;;;;;5070580;28;20481;-71
2022/09/20 07:00:47;;;;;;;0.65;0.65;;;;;;;;;;5070554;28;20455;-71
2022/09/20 07:03:14;;;;;;;2.15;0.63;;;;;;;;;;5070732;28;20461;-72
2022/09/20 07:05:47;;;;;;;1.10;0.70;;;;;;;;;;5070943;28;20447;-72
2022/09/20 07:08:15;;;;;;;0.50;0.43;;;10.90;99.90;;;;;;5070754;28;20428;-72
2022/09/20 07:10:44;;;;;;;1.10;0.50;;;15.50;99.90;;;;;;5070604;28;20827;-73
2022/09/20 07:13:24;;;;;;;1.70;0.70;;;;;;;;;;5069141;28;20439;-72
2022/09/20 07:15:51;;;;;;;1.80;0.60;;;;;;;;;;5070473;28;20442;-72
2022/09/20 07:18:18;;;;;;;0.57;0.57;;;;;;;;;;5070608;28;20424;-72
2022/09/20 07:20:48;;;;;;;1.08;0.55;;;;;;;;;;5070393;28;20450;-72
2022/09/20 07:23:25;;;;;;;0.60;0.43;;;;;;;;;;5069055;28;20422;-72
2022/09/20 07:25:53;;;;;;;0.43;0.43;;;;;;;;;;5070218;28;20431;-73
2022/09/20 07:28:21;;;;;;;0.70;0.70;;;;;;;;;;5070345;28;20905;-73
2022/09/20 07:30:48;;;;;;;0.70;0.70;;;;;;;;;;5068497;28;20481;-72
2022/09/20 07:33:20;;;;;;;1.80;0.80;;;;;;;;;;5070140;28;20836;-72
2022/09/20 07:35:51;;;;;;;1.30;0.70;;;;;;;;;;5070320;28;20526;-72
2022/09/20 07:38:19;;;;;;;0.65;0.65;;;;;;;;;;5069923;28;20465;-72
2022/09/20 07:40:46;;;;;;;0.60;0.60;;;;;;;;;;5069904;28;20434;-73
2022/09/20 07:43:13;;;;;;;0.63;0.63;;;;;;;;;;5069647;28;20913;-73
2022/09/20 07:45:43;;;;;;;0.80;0.80;;;;;;;;;;5069711;28;20836;-72
2022/09/20 07:48:13;;;;;;;2.25;0.77;;;;;;;;;;5070033;28;20424;-73
2022/09/20 07:50:41;;;;;;;0.63;0.63;;;;;;;;;;5068885;28;20426;-72
2022/09/20 07:53:11;;;;;;;0.60;0.60;;;;;;;;;;5070189;28;20462;-72
2022/09/20 07:55:38;;;;;;;0.55;0.55;;;;;;;;;;5069709;28;20929;-72
2022/09/20 07:58:05;;;;;;;0.60;0.60;;;;;;;;;;5069880;28;20523;-72
2022/09/20 08:00:34;;;;;;;0.87;0.87;;;;;;;;;;5069909;28;20434;-72
2022/09/20 08:03:04;;;;;;;1.20;0.55;;;;;;;;;;5069368;28;20498;-72
2022/09/20 08:05:31;;;;;;;1.50;0.60;;;;;;;;;;5068649;28;20427;-72
2022/09/20 08:07:59;;;;;;;1.10;0.80;;;;;;;;;;5070039;28;20468;-72
2022/09/20 08:10:27;;;;;;;0.55;0.55;;;;;;;;;;5068817;28;20459;-71
2022/09/20 08:12:54;;;;;;;0.68;0.68;;;;;;;;;;5069778;28;20423;-72
2022/09/20 08:15:41;;;;;;;2.50;0.60;;;;;;;;;;5069673;28;20481;-72
2022/09/20 08:18:10;;;;;;;0.63;0.63;;;;;;;;;;5069503;28;20972;-72
2022/09/20 08:20:41;;;;;;;0.67;0.67;;;;;;;;;;5069792;28;20428;-72
2022/09/20 08:23:08;;;;;;;3.08;1.08;;;;;;;;;;5067989;28;20918;-73
2022/09/20 08:25:49;;;;;;;0.73;0.47;;;;;;;;;;5068385;28;20430;-72
2022/09/20 08:28:19;;;;;;;0.70;0.70;;;;;;;;;;5069715;28;20450;-72
2022/09/20 08:30:46;;;;;;;0.60;0.60;;;;;;;;;;5069796;28;20427;-72
2022/09/20 08:33:16;;;;;;;1.80;0.70;;;;;;;;;;5069385;28;20424;-71
2022/09/20 08:35:48;;;;;;;0.70;0.55;;;;;;;;;;5069369;28;20430;-72
2022/09/20 08:38:15;;;;;;;1.20;0.57;;;;;;;;;;5069385;28;20427;-72
2022/09/20 08:41:06;;;;;;;0.70;0.70;;;;;;;;;;5069276;28;20952;-71
2022/09/20 08:43:59;;;;;;;0.63;0.50;;;;;;;;;;5069103;28;20951;-71
2022/09/20 08:46:33;;;;;;;0.60;0.60;;;;;;;;;;5066923;28;20820;-72
2022/09/20 08:49:03;;;;;;;1.20;0.65;;;;;;;;;;5068781;28;20442;-71
2022/09/20 08:51:33;;;;;;;0.63;0.63;;;;;;;;;;5069607;28;21116;-72
2022/09/20 08:54:03;;;;;;;0.50;0.50;;;;;;;;;;5069135;28;20431;-71
2022/09/20 08:56:37;;;;;;;0.65;0.65;;;;;;;;;;5070210;28;20432;-71
2022/09/20 08:59:04;;;;;;;1.50;0.63;;;;;;;;;;5072995;28;21012;-72
2022/09/20 09:01:32;;;;;;;0.50;0.50;;;;;;;;;;5072151;28;20427;-72
2022/09/20 09:04:11;;;;;;;0.70;0.70;;;;;;;;;;5072011;28;20430;-72
2022/09/20 09:06:42;;;;;;;0.40;0.40;;;;;;;;;;5071545;28;20436;-74
2022/09/20 09:09:15;;;;;;;0.50;0.50;;;;;;;;;;5071853;28;20419;-72
2022/09/20 09:11:43;;;;;;;0.45;0.45;;;;;;;;;;5072475;28;20936;-73
2022/09/20 09:17:01;;;;;;;0.45;0.43;;;;;;;;;;5072628;28;20511;-71
2022/09/20 09:19:29;;;;;;;0.40;0.40;;;;;;;;;;5072910;28;20797;-71
2022/09/20 09:22:01;;;;;;;1.10;0.43;;;;;;;;;;5073246;28;20479;-72
2022/09/20 09:24:30;;;;;;;0.50;0.50;;;;;;;;;;5072616;28;20423;-72
2022/09/20 09:27:18;;;;;;;0.80;0.60;;;;;;;;;;5073017;28;20435;-71
2022/09/20 09:30:08;;;;;;;0.50;0.50;;;;;;;;;;5072523;28;20454;-71
2022/09/20 09:32:36;;;;;;;0.47;0.47;;;;;;;;;;5071142;28;20449;-71
2022/09/20 09:35:23;;;;;;;0.50;0.50;;;16.10;99.90;;;;;;5072248;28;20427;-71
2022/09/20 09:37:54;;;;;;;1.23;0.63;;;17.10;99.90;;;;;;5072230;28;20898;-72
2022/09/20 09:40:31;;;;;;;0.80;0.80;;;17.40;99.90;;;;;;5072154;28;20426;-72
2022/09/20 09:43:01;;;;;;;2.20;0.60;;;18.00;99.90;;;;;;5071113;28;20431;-72
2022/09/20 09:45:39;;;;;;;0.43;0.43;;;18.60;99.90;;;;;;5072202;28;20424;-72
2022/09/20 09:48:29;;;;;;;0.40;0.40;;;19.20;99.90;;;;;;5072048;28;20432;-71
2022/09/20 09:51:16;;;;;;;0.80;0.70;;;19.90;99.90;;;;;;5072295;28;20438;-73
2022/09/20 09:53:45;;;;;;;0.40;0.40;;;;;;;;;;5071855;28;20431;-71
2022/09/20 09:56:40;;;;;;;0.30;0.30;;;20.80;99.90;;;;;;5072318;28;20432;-72
2022/09/20 09:59:27;;;;;;;0.47;0.47;;;21.60;99.90;;;;;;5072074;28;20431;-72
2022/09/20 10:02:33;;;;;;;0.30;0.30;;;20.60;99.90;;;;;;5071955;28;20423;-72
2022/09/20 10:05:21;;;;;;;0.47;0.47;;;19.70;99.90;;;;;;5069112;28;20917;-72
2022/09/20 10:08:25;;;;;;;0.60;0.60;;;18.90;99.90;;;;;;5069242;28;20435;-72
2022/09/20 10:11:37;;;;;;;0.47;0.47;;;18.30;99.90;;;;;;5070491;28;20436;-70
2022/09/20 10:14:28;;;;;;;0.40;0.40;;;17.50;99.90;;;;;;5071121;28;20442;-72
2022/09/20 10:17:14;;;;;;;1.23;1.00;;;16.70;99.90;;;;;;5071737;28;20432;-70
2022/09/20 10:20:20;;;;;;;1.50;0.80;;;16.00;99.90;;;;;;5070307;28;20435;-71
2022/09/20 10:22:55;;;;;;;0.40;0.40;;;15.40;99.90;;;;;;5071723;28;20435;-71
2022/09/20 10:26:20;;;;;;;0.50;0.50;;;15.40;99.90;;;;;;5071935;28;20837;-71
2022/09/20 10:29:00;;;;;;;0.50;0.50;;;15.70;99.90;;;;;;5070680;28;20432;-71
2022/09/20 10:32:06;;;;;;;0.47;0.47;;;16.00;99.90;;;;;;5071904;28;20438;-71
2022/09/20 10:34:47;;;;;;;0.50;0.40;;;16.40;99.90;;;;;;5028329;28;20435;-71
2022/09/20 10:37:43;;;;;;;0.50;0.50;;;16.80;99.90;;;;;;5028076;28;20443;-71
2022/09/20 10:40:23;;;;;;;0.55;0.55;;;16.90;99.90;;;;;;4989168;28;20429;-72
2022/09/20 10:43:15;;;;;;;0.43;0.43;;;17.30;99.90;;;;;;5028414;28;20427;-72
2022/09/20 10:46:17;;;;;;;0.50;0.50;;;17.70;99.90;;;;;;5023071;28;20430;-72
2022/09/20 10:49:16;;;;;;;0.47;0.47;;;19.00;99.90;;;;;;5008347;28;20424;-71
2022/09/20 10:51:59;;;;;;;0.30;0.30;;;20.40;99.90;;;;;;5007932;28;20432;-73
2022/09/20 10:55:05;;;;;;;0.70;0.60;;;21.70;99.90;;;;;;5007924;28;20433;-72
2022/09/20 10:57:52;;;;;;;0.30;0.30;;;22.90;99.90;;;;;;5008317;28;20433;-72
2022/09/20 11:00:23;;;;;;;0.80;0.43;;;22.80;99.90;;;;;;5008307;28;20432;-70
2022/09/20 11:03:17;;;;;;;1.10;0.40;;;21.10;99.90;;;;;;5008424;28;20516;-74
2022/09/20 11:06:12;;;;;;;0.30;0.30;;;18.60;99.90;;;;;;5020977;28;20431;-71
2022/09/20 11:08:41;;;;;;;1.07;0.40;;;16.30;99.90;;;;;;5027961;28;20434;-71
2022/09/20 11:11:20;;;;;;;0.77;0.77;;;14.70;99.90;;;;;;5008360;28;20826;-72
2022/09/20 11:14:03;;;;;;;0.60;0.60;;;13.90;99.90;;;;;;4991439;28;20440;-72
2022/09/20 11:16:51;;;;;;;0.67;0.67;;;13.70;99.90;;;;;;5008310;28;20428;-72
2022/09/20 11:19:50;;;;;;;0.40;0.40;;;14.00;99.90;;;;;;5007580;28;20513;-72
2022/09/20 11:22:31;;;;;;;0.50;0.50;;;14.40;99.90;;;;;;4965900;28;21242;-72
2022/09/20 11:25:17;;;;;;;0.60;0.60;;;15.20;99.90;;;;;;5016622;28;20428;-73
2022/09/20 11:27:53;;;;;;;0.40;0.40;;;15.80;99.90;;;;;;5050367;28;20441;-72
2022/09/20 11:30:21;;;;;;;0.50;0.50;;;16.50;99.90;;;;;;5050205;28;20437;-73
2022/09/20 11:33:06;;;;;;;0.65;0.45;;;17.10;99.90;;;;;;5050174;28;20477;-73
2022/09/20 11:35:47;;;;;;;0.50;0.50;;;17.90;99.90;;;;;;5050190;28;20432;-73
2022/09/20 11:38:23;;;;;;;0.40;0.40;;;18.30;99.90;;;;;;5050155;28;20433;-73
2022/09/20 11:41:13;;;;;;;0.30;0.30;;;18.90;99.90;;;;;;5050282;28;20425;-70
2022/09/20 11:43:44;;;;;;;0.60;0.45;;;19.50;99.90;;;;;;5056332;28;20427;-70
2022/09/20 11:46:17;;;;;;;0.98;0.50;;;19.40;99.90;;;;;;5070270;28;20435;-72
2022/09/20 11:49:00;;;;;;;0.50;0.40;;;19.00;99.90;;;;;;5070182;28;20441;-73
2022/09/20 11:51:41;;;;;;;0.53;0.53;;;18.00;99.90;;;;;;5070003;28;20952;-71
2022/09/20 11:54:14;;;;;;;0.83;0.67;;;16.80;99.90;;;;;;5068705;28;20431;-72
2022/09/20 11:56:52;;;;;;;0.45;0.45;;;16.20;99.90;;;;;;5070311;28;20427;-72
2022/09/20 11:59:39;;;;;;;0.40;0.40;;;15.80;99.90;;;;;;5069941;28;20781;-73
2022/09/20 12:02:23;;;;;;;0.38;0.38;;;15.60;99.90;;;;;;5070200;28;20430;-73
2022/09/20 12:04:52;;;;;;;0.30;0.30;;;15.70;99.90;;;;;;5068920;28;20787;-73
2022/09/20 12:07:24;;;;;;;0.50;0.50;;;16.70;99.90;;;;;;5069903;28;20455;-71
2022/09/20 12:10:00;;;;;;;0.30;0.30;;;18.00;99.90;;;;;;5049812;28;20429;-71
2022/09/20 12:12:44;;;;;;;0.20;0.20;;;19.10;99.90;;;;;;5049725;28;20431;-72
2022/09/20 12:15:40;;;;;;;0.90;0.55;;;19.80;99.90;;;;;;5047821;28;20536;-73
2022/09/20 12:18:34;;;;;;;0.20;0.20;;;20.30;99.90;;;;;;5049159;28;20451;-71
2022/09/20 12:21:03;;;;;;;0.30;0.30;;;20.60;99.90;;;;;;5047654;28;20933;-73
2022/09/20 12:23:39;;;;;;;0.40;0.40;;;20.60;99.90;;;;;;5047794;28;20440;-72
2022/09/20 12:26:19;;;;;;;0.40;0.40;;;20.60;99.90;;;;;;5048803;28;20482;-72
2022/09/20 12:28:57;;;;;;;0.40;0.40;;;20.70;99.90;;;;;;5048812;28;21018;-72
2022/09/20 12:31:25;;;;;;;0.32;0.32;;;21.10;99.90;;;;;;5049507;28;20425;-73
2022/09/20 12:34:14;;;;;;;0.50;0.50;;;21.00;99.90;;;;;;5051525;28;20428;-72
2022/09/20 12:36:45;;;;;;;0.30;0.30;;;21.20;99.90;;;;;;5052301;28;20429;-73
2022/09/20 12:39:11;;;;;;;0.90;0.50;;;21.30;99.90;;;;;;5052336;28;20504;-69
2022/09/20 12:41:46;;;;;;;0.45;0.45;;;21.70;99.90;;;;;;5052130;28;20425;-69
2022/09/20 12:44:28;;;;;;;0.90;0.50;;;22.00;99.90;;;;;;5050322;28;20440;-71
2022/09/20 12:47:09;;;;;;;0.60;0.40;;;22.50;99.90;;;;;;5051943;28;20447;-72
2022/09/20 12:52:57;;;;;;;0.70;0.47;;;22.50;99.90;;;;;;5052656;28;20428;-71
2022/09/20 12:55:37;;;;;;;0.38;0.32;;;23.10;99.90;;;;;;5053073;28;20432;-72
2022/09/20 12:58:19;;;;;;;0.90;0.38;;;23.40;99.90;;;;;;5053248;28;20472;-71
2022/09/20 13:00:58;;;;;;;0.35;0.35;;;23.20;99.90;;;;;;5052867;28;20899;-71
2022/09/20 13:03:34;;;;;;;0.40;0.40;;;22.30;99.90;;;;;;5052740;28;20418;-71
2022/09/20 13:06:07;;;;;;;0.40;0.40;;;21.40;99.90;;;;;;5052244;28;20439;-71
2022/09/20 13:08:38;;;;;;;0.40;0.40;;;20.60;99.90;;;;;;5072907;28;20445;-70
2022/09/20 13:11:05;;;;;;;0.30;0.30;;;19.90;99.90;;;;;;5072737;28;20463;-71
2022/09/20 13:13:50;;;;;;;1.17;0.40;;;19.50;99.90;;;;;;5072286;28;20447;-71
2022/09/20 13:16:32;;;;;;;0.47;0.47;;;19.20;99.90;;;;;;5072792;28;20432;-71
2022/09/20 13:19:29;;;;;;;0.35;0.35;;;18.80;99.90;;;;;;5072534;28;20471;-72
2022/09/20 13:22:07;;;;;;;0.45;0.45;;;18.30;99.90;;;;;;5073018;28;20431;-71
2022/09/20 13:24:49;;;;;;;1.20;0.75;;;18.00;99.90;;;;;;5071054;28;20890;-71
2022/09/20 13:27:29;;;;;;;0.40;0.32;;;17.80;99.90;;;;;;5072626;28;20431;-71
2022/09/20 13:30:16;;;;;;;0.30;0.30;;;17.30;99.90;;;;;;5071777;28;20431;-71
2022/09/20 13:32:43;;;;;;;1.30;0.60;;;16.80;99.90;;;;;;5072539;28;20473;-72
2022/09/20 13:35:30;;;;;;;0.40;0.40;;;16.40;99.90;;;;;;5072067;28;20431;-73
2022/09/20 13:38:07;;;;;;;1.20;0.40;;;15.90;99.90;;;;;;5072253;28;20438;-71
2022/09/20 13:40:46;;;;;;;0.40;0.40;;;15.90;99.90;;;;;;5072023;28;20423;-71
2022/09/20 13:43:35;;;;;;;0.73;0.57;;;16.10;99.90;;;;;;5071699;28;20423;-74
2022/09/20 13:46:20;;;;;;;1.10;0.55;;;16.30;99.90;;;;;;5072045;28;20419;-71
2022/09/20 13:49:14;;;;;;;0.40;0.40;;;16.50;99.90;;;;;;5072088;28;20975;-70
2022/09/20 13:51:41;;;;;;;0.70;0.50;;;16.70;99.90;;;;;;5072194;28;20435;-70
2022/09/20 13:54:24;;;;;;;0.45;0.45;;;16.90;99.90;;;;;;5071690;28;20477;-71
2022/09/20 13:56:51;;;;;;;1.20;0.30;;;17.30;99.90;;;;;;5071795;28;20489;-70
2022/09/20 13:59:22;;;;;;;0.50;0.50;;;17.70;99.90;;;;;;5071591;28;20431;-70
2022/09/20 14:01:54;;;;;;;0.32;0.32;;;18.10;99.90;;;;;;5071855;28;20427;-71
2022/09/20 14:04:23;;;;;;;0.40;0.40;;;18.40;99.90;;;;;;5071315;28;20541;-70
2022/09/20 14:06:52;;;;;;;0.38;0.38;;;18.20;99.90;;;;;;5052642;28;20946;-70
2022/09/20 14:09:38;;;;;;;0.50;0.50;;;17.90;99.90;;;;;;5052368;28;20433;-70
2022/09/20 14:12:05;;;;;;;0.30;0.30;;;17.90;99.90;;;;;;5051967;28;20437;-70
2022/09/20 14:14:33;;;;;;;0.40;0.40;;;18.10;99.90;;;;;;5051430;28;20437;-70
2022/09/20 14:17:06;;;;;;;0.95;0.40;;;18.40;99.90;;;;;;5051303;28;20464;-69
2022/09/20 14:19:39;;;;;;;0.50;0.50;;;18.70;99.90;;;;;;5051721;28;20491;-70
2022/09/20 14:22:07;;;;;;;0.30;0.30;;;18.60;99.90;;;;;;5051591;28;20757;-70
2022/09/20 14:24:36;;;;;;;0.35;0.35;;;18.60;99.90;;;;;;5051009;28;20429;-70
2022/09/20 14:27:22;;;;;;;0.52;0.52;;;18.60;99.90;;;;;;5051394;28;20512;-70
2022/09/20 14:29:51;;;;;;;1.00;0.50;;;18.90;99.90;;;;;;5051553;28;20903;-71
2022/09/20 14:32:18;;;;;;;0.40;0.40;;;19.00;99.90;;;;;;5051434;28;20897;-71
2022/09/20 14:34:55;;;;;;;0.50;0.50;;;18.90;99.90;;;;;;5050953;28;21064;-70
2022/09/20 14:37:26;;;;;;;0.50;0.30;;;18.50;99.90;;;;;;5051280;28;20425;-71
2022/09/20 14:39:55;;;;;;;0.40;0.40;;;18.10;99.90;;;;;;5051327;28;20429;-71
2022/09/20 14:42:29;;;;;;;0.27;0.27;;;17.60;99.90;;;;;;5051334;28;20433;-71